Time;durP1;ratioP1;P1;durP2;ratioP2;P2;SDS_P1;SDS_P2;PMS_P1;PMS_P2;Temp;Humidity;BMP_temperature;BMP_pressure;BME280_temperature;BME280_humidity;BME280_pressure;Samples;Min_cycle;Max_cycle;Signal;HPM_P1;HPM_P2
2020/12/01 00:01:12;;;;;;;25.40;10.90;;;4.90;60.70;;;;;;2344524;53;21012;-72
2020/12/01 00:03:40;;;;;;;27.75;13.07;;;4.90;60.90;;;;;;2585147;53;20955;-72
2020/12/01 00:06:08;;;;;;;30.98;15.73;;;4.80;61.00;;;;;;2339183;53;21052;-72
2020/12/01 00:08:35;;;;;;;27.23;13.52;;;4.80;61.20;;;;;;2584176;53;20933;-72
2020/12/01 00:11:02;;;;;;;29.15;14.43;;;4.80;61.40;;;;;;2339073;53;20969;-72
2020/12/01 00:13:29;;;;;;;26.33;13.77;;;4.80;61.50;;;;;;2571224;53;21018;-72
2020/12/01 00:15:55;;;;;;;28.58;12.90;;;4.80;61.70;;;;;;2342893;53;20993;-72
2020/12/01 00:18:22;;;;;;;24.23;12.15;;;4.80;61.90;;;;;;2583902;53;21025;-73
2020/12/01 00:20:48;;;;;;;27.65;13.00;;;4.70;62.10;;;;;;2570905;52;20946;-73
2020/12/01 00:23:14;;;;;;;24.37;12.30;;;4.80;62.20;;;;;;2566742;53;20931;-73
2020/12/01 00:25:41;;;;;;;24.27;12.23;;;4.80;62.40;;;;;;2338634;53;21659;-72
2020/12/01 00:28:07;;;;;;;27.77;12.85;;;4.70;62.40;;;;;;2584268;53;20968;-72
2020/12/01 00:30:34;;;;;;;23.00;12.32;;;4.70;62.60;;;;;;2342369;53;22042;-72
2020/12/01 00:33:00;;;;;;;27.05;12.63;;;4.70;62.70;;;;;;2585575;53;21024;-72
2020/12/01 00:35:30;;;;;;;25.60;11.55;;;4.70;62.90;;;;;;2340885;53;20944;-72
2020/12/01 00:37:56;;;;;;;22.20;11.40;;;4.70;63.10;;;;;;2587257;53;21004;-72
2020/12/01 00:40:23;;;;;;;19.08;9.65;;;4.70;63.20;;;;;;2586537;53;21001;-72
2020/12/01 00:42:51;;;;;;;21.50;9.40;;;4.70;63.30;;;;;;2587479;53;21020;-72
2020/12/01 00:45:18;;;;;;;17.52;8.70;;;4.80;63.60;;;;;;2342093;53;20952;-72
2020/12/01 00:47:44;;;;;;;21.20;10.60;;;4.80;63.70;;;;;;2587976;53;20976;-71
2020/12/01 00:50:14;;;;;;;19.55;9.90;;;4.80;63.80;;;;;;2588352;53;20941;-71
2020/12/01 00:52:40;;;;;;;18.23;8.98;;;4.80;63.80;;;;;;2344216;53;20976;-71
2020/12/01 00:55:07;;;;;;;19.02;9.27;;;4.80;63.90;;;;;;2341086;53;20921;-71
2020/12/01 00:57:34;;;;;;;18.55;9.10;;;4.80;63.90;;;;;;2588103;53;21060;-71
2020/12/01 01:00:00;;;;;;;21.10;9.88;;;4.90;63.90;;;;;;2341734;53;20937;-71
2020/12/01 01:02:26;;;;;;;20.98;9.85;;;4.80;64.50;;;;;;2344966;53;21099;-71
2020/12/01 01:04:54;;;;;;;20.48;10.43;;;4.90;63.90;;;;;;2341355;53;20972;-71
2020/12/01 01:07:21;;;;;;;24.37;12.32;;;4.80;63.80;;;;;;2586929;53;21021;-72
2020/12/01 01:09:47;;;;;;;22.42;12.25;;;4.80;63.80;;;;;;2341265;53;21020;-71
2020/12/01 01:12:15;;;;;;;30.42;15.70;;;4.80;63.80;;;;;;2585867;53;20975;-71
2020/12/01 01:14:42;;;;;;;31.52;15.55;;;4.80;63.70;;;;;;2341688;53;20952;-71
2020/12/01 01:17:08;;;;;;;31.85;15.38;;;4.80;63.60;;;;;;2341159;53;20941;-71
2020/12/01 01:19:34;;;;;;;27.02;13.07;;;4.70;63.50;;;;;;2341197;53;20925;-71
2020/12/01 01:22:02;;;;;;;23.23;12.27;;;4.70;63.60;;;;;;2587994;53;20924;-71
2020/12/01 01:24:28;;;;;;;25.27;13.50;;;4.70;63.70;;;;;;2587975;53;20941;-71
2020/12/01 01:26:55;;;;;;;30.98;14.65;;;4.60;63.60;;;;;;2587690;53;21488;-71
2020/12/01 01:29:22;;;;;;;27.30;12.45;;;4.60;63.60;;;;;;2343720;53;20945;-71
2020/12/01 01:31:52;;;;;;;29.10;12.95;;;4.60;63.70;;;;;;2560833;53;20970;-71
2020/12/01 01:34:18;;;;;;;27.45;13.00;;;4.60;63.80;;;;;;2328374;53;20939;-71
2020/12/01 01:36:44;;;;;;;27.83;12.40;;;4.50;63.80;;;;;;2311240;54;20955;-72
2020/12/01 01:39:10;;;;;;;27.40;13.73;;;4.40;63.80;;;;;;2312444;54;21460;-71
2020/12/01 01:41:37;;;;;;;26.75;13.32;;;4.50;64.00;;;;;;2309426;54;20969;-72
2020/12/01 01:44:16;;;;;;;30.05;14.05;;;4.40;64.10;;;;;;2552536;53;20929;-71
2020/12/01 01:46:44;;;;;;;27.08;13.20;;;4.40;64.20;;;;;;2295985;55;20972;-71
2020/12/01 01:49:13;;;;;;;25.75;12.60;;;4.40;64.30;;;;;;2314601;54;21002;-71
2020/12/01 01:51:42;;;;;;;24.37;11.90;;;4.40;64.50;;;;;;2323829;53;21001;-71
2020/12/01 01:54:10;;;;;;;28.87;13.48;;;4.40;64.50;;;;;;2580665;53;20947;-71
2020/12/01 01:56:38;;;;;;;29.85;14.23;;;4.30;64.50;;;;;;2338762;53;20969;-73
2020/12/01 01:59:05;;;;;;;31.60;15.65;;;4.30;64.50;;;;;;2335913;53;20931;-73
2020/12/01 02:01:31;;;;;;;28.83;13.95;;;4.30;64.60;;;;;;2340320;53;20919;-73
2020/12/01 02:03:59;;;;;;;28.75;14.13;;;4.30;64.70;;;;;;2337804;53;21453;-74
2020/12/01 02:06:42;;;;;;;29.35;12.40;;;4.20;64.80;;;;;;2340738;53;21028;-75
2020/12/01 02:09:18;;;;;;;35.15;15.27;;;4.20;65.00;;;;;;2324709;53;20937;-76
2020/12/01 02:11:45;;;;;;;31.05;14.40;;;4.20;65.00;;;;;;2321744;54;21386;-77
2020/12/01 02:14:18;;;;;;;28.98;14.10;;;4.20;65.10;;;;;;2581194;53;20923;-80
2020/12/01 02:16:57;;;;;;;27.02;12.95;;;4.10;65.20;;;;;;2555524;53;21846;-77
2020/12/01 02:19:28;;;;;;;27.45;12.77;;;4.10;65.40;;;;;;2583072;53;20974;-76
2020/12/01 02:21:58;;;;;;;27.77;12.32;;;4.10;65.50;;;;;;2324200;53;20927;-77
2020/12/01 02:24:29;;;;;;;26.73;12.98;;;4.10;65.70;;;;;;2580763;53;20931;-77
2020/12/01 02:26:57;;;;;;;25.60;11.60;;;4.10;65.80;;;;;;2580775;53;20986;-75
2020/12/01 02:29:29;;;;;;;27.48;13.07;;;4.10;66.00;;;;;;2335023;53;20911;-75
2020/12/01 02:31:56;;;;;;;26.17;12.75;;;4.20;66.30;;;;;;2581903;53;21834;-74
2020/12/01 02:34:30;;;;;;;27.40;13.27;;;4.20;66.50;;;;;;2575017;53;20964;-75
2020/12/01 02:36:57;;;;;;;23.77;11.85;;;4.20;66.60;;;;;;2562413;53;20960;-75
2020/12/01 02:39:28;;;;;;;21.75;11.12;;;4.20;66.80;;;;;;2334069;53;20968;-74
2020/12/01 02:42:06;;;;;;;24.75;11.23;;;4.30;67.00;;;;;;2335948;53;20969;-74
2020/12/01 02:44:32;;;;;;;25.88;12.02;;;4.30;67.10;;;;;;2577014;53;20976;-74
2020/12/01 02:47:01;;;;;;;21.15;10.50;;;4.30;67.20;;;;;;2334317;53;20969;-73
2020/12/01 02:49:27;;;;;;;19.17;8.75;;;4.40;67.30;;;;;;2583065;53;21483;-74
2020/12/01 02:51:54;;;;;;;23.75;11.20;;;4.40;67.40;;;;;;2567158;53;20994;-75
2020/12/01 02:54:21;;;;;;;22.17;11.00;;;4.40;67.40;;;;;;2334914;53;20921;-73
2020/12/01 02:56:47;;;;;;;24.75;11.65;;;4.50;67.50;;;;;;2336073;54;21263;-73
2020/12/01 02:59:15;;;;;;;22.55;10.90;;;4.50;67.60;;;;;;2339226;53;21039;-73
2020/12/01 03:01:42;;;;;;;26.15;11.43;;;4.60;67.70;;;;;;2580193;53;21039;-73
2020/12/01 03:04:08;;;;;;;19.58;9.18;;;4.60;67.80;;;;;;2581916;53;20955;-73
2020/12/01 03:06:34;;;;;;;19.17;9.02;;;4.60;67.80;;;;;;2582185;53;22255;-73
2020/12/01 03:09:00;;;;;;;19.00;9.30;;;4.60;67.90;;;;;;2572413;53;20945;-73
2020/12/01 03:11:27;;;;;;;19.65;9.23;;;4.70;68.00;;;;;;2325676;53;21835;-73
2020/12/01 03:13:53;;;;;;;20.45;9.20;;;4.70;68.00;;;;;;2336359;55;21396;-73
2020/12/01 03:16:19;;;;;;;21.27;9.82;;;4.80;68.10;;;;;;2317023;55;20951;-73
2020/12/01 03:18:46;;;;;;;20.25;8.98;;;4.80;68.10;;;;;;2581082;53;20958;-73
2020/12/01 03:21:14;;;;;;;19.98;9.70;;;4.80;68.10;;;;;;2339549;53;21009;-73
2020/12/01 03:23:41;;;;;;;20.30;9.63;;;4.90;68.20;;;;;;2327619;53;20976;-73
2020/12/01 03:26:08;;;;;;;17.87;8.27;;;4.90;68.20;;;;;;2572633;53;20915;-73
2020/12/01 03:28:34;;;;;;;22.33;10.43;;;4.90;68.20;;;;;;2336409;53;21815;-73
2020/12/01 03:31:01;;;;;;;16.23;8.13;;;5.00;68.30;;;;;;2340144;53;21095;-73
2020/12/01 03:33:27;;;;;;;15.40;7.43;;;5.00;68.30;;;;;;2339873;53;20995;-73
2020/12/01 03:35:55;;;;;;;16.67;7.50;;;5.00;69.10;;;;;;2336724;55;20994;-73
2020/12/01 03:38:30;;;;;;;15.52;8.15;;;5.00;68.40;;;;;;2316181;55;21063;-73
2020/12/01 03:40:56;;;;;;;14.93;7.05;;;5.10;68.40;;;;;;2316836;55;21745;-73
2020/12/01 03:43:23;;;;;;;16.98;7.37;;;5.10;68.40;;;;;;2336471;53;20887;-73
2020/12/01 03:45:49;;;;;;;13.98;7.28;;;5.10;68.30;;;;;;2330735;55;21003;-73
2020/12/01 03:48:16;;;;;;;13.75;6.43;;;5.10;68.20;;;;;;2580705;53;20911;-73
2020/12/01 03:50:45;;;;;;;15.85;7.60;;;5.10;68.20;;;;;;2581290;53;20987;-73
2020/12/01 03:53:12;;;;;;;17.95;8.65;;;5.20;68.20;;;;;;2582023;53;20900;-74
2020/12/01 03:55:38;;;;;;;20.90;9.45;;;5.20;68.00;;;;;;2336651;55;20987;-73
2020/12/01 03:58:04;;;;;;;16.27;8.43;;;5.20;67.80;;;;;;2336147;55;20939;-74
2020/12/01 04:00:31;;;;;;;17.02;8.32;;;5.20;67.70;;;;;;2339481;53;20921;-74
2020/12/01 04:03:07;;;;;;;14.27;7.45;;;5.00;67.50;;;;;;2581277;53;20986;-73
2020/12/01 04:05:33;;;;;;;15.95;7.57;;;5.10;67.60;;;;;;2338878;55;20942;-73
2020/12/01 04:08:01;;;;;;;16.67;8.02;;;5.10;68.20;;;;;;2574939;53;21017;-73
2020/12/01 04:10:27;;;;;;;15.93;8.25;;;5.10;67.50;;;;;;2324213;53;21481;-74
2020/12/01 04:12:54;;;;;;;17.55;7.87;;;5.10;67.30;;;;;;2580819;53;20946;-73
2020/12/01 04:15:21;;;;;;;17.10;8.15;;;5.10;67.10;;;;;;2340521;53;21011;-73
2020/12/01 04:17:47;;;;;;;17.02;8.38;;;5.10;67.00;;;;;;2580801;53;21022;-73
2020/12/01 04:20:14;;;;;;;16.02;8.13;;;5.10;66.90;;;;;;2578734;53;20920;-74
2020/12/01 04:22:40;;;;;;;17.42;8.23;;;5.00;66.70;;;;;;2581195;53;21054;-73
2020/12/01 04:25:08;;;;;;;19.00;8.95;;;5.00;66.70;;;;;;2336725;55;21006;-74
2020/12/01 04:27:38;;;;;;;18.73;9.40;;;5.10;66.90;;;;;;2580237;53;21895;-73
2020/12/01 04:30:04;;;;;;;17.75;7.82;;;5.00;66.90;;;;;;2581130;53;21074;-73
2020/12/01 04:32:31;;;;;;;19.42;8.93;;;5.00;67.00;;;;;;2580466;53;21010;-73
2020/12/01 04:34:57;;;;;;;17.85;8.95;;;4.90;67.00;;;;;;2337321;54;20951;-74
2020/12/01 04:37:23;;;;;;;17.00;8.52;;;4.90;67.00;;;;;;2577956;53;21078;-74
2020/12/01 04:39:51;;;;;;;18.75;8.93;;;4.90;67.00;;;;;;2334599;53;20970;-75
2020/12/01 04:42:19;;;;;;;15.43;7.65;;;4.90;67.00;;;;;;2339818;53;20980;-74
2020/12/01 04:45:54;;;;;;;16.15;7.62;;;4.90;66.90;;;;;;2568326;53;20985;-75
2020/12/01 04:48:42;;;;;;;17.35;7.70;;;4.80;66.70;;;;;;2320042;53;20948;-75
2020/12/01 04:52:45;;;;;;;16.15;7.20;;;4.80;66.50;;;;;;2335480;53;21495;-76
2020/12/01 04:55:48;;;;;;;19.08;7.40;;;4.80;66.50;;;;;;2341618;53;21072;-77
2020/12/01 05:00:07;;;;;;;17.02;7.80;;;4.70;66.30;;;;;;2581812;53;21022;-78
2020/12/01 05:04:28;;;;;;;14.87;6.87;;;4.70;66.40;;;;;;2581761;53;21462;-77
2020/12/01 05:09:57;;;;;;;15.05;6.07;;;4.60;66.30;;;;;;2581065;53;21004;-77
2020/12/01 05:12:38;;;;;;;14.80;6.03;;;4.60;66.40;;;;;;2577822;53;21705;-77
2020/12/01 05:15:21;;;;;;;16.30;7.55;;;4.50;66.40;;;;;;2534727;53;20939;-76
2020/12/01 05:18:22;;;;;;;17.02;7.25;;;4.40;66.50;;;;;;2581247;53;20981;-76
2020/12/01 05:20:53;;;;;;;19.12;7.85;;;4.40;66.60;;;;;;2580920;53;21008;-75
2020/12/01 05:23:26;;;;;;;17.52;7.70;;;4.40;66.80;;;;;;2321764;53;21005;-75
2020/12/01 05:26:01;;;;;;;;;;;4.30;66.90;;;;;;2343428;53;20927;-75
2020/12/01 05:28:28;;;;;;;21.30;9.20;;;4.30;66.80;;;;;;2581411;53;20082;-75
2020/12/01 05:31:04;;;;;;;18.80;8.95;;;4.30;67.00;;;;;;2570507;53;20965;-75
2020/12/01 05:33:32;;;;;;;18.35;9.07;;;4.30;67.20;;;;;;2329177;53;20915;-75
2020/12/01 05:36:37;;;;;;;19.62;9.68;;;4.20;67.30;;;;;;2581946;53;20904;-75
2020/12/01 05:39:24;;;;;;;26.80;11.70;;;4.20;67.40;;;;;;2581091;53;20999;-76
2020/12/01 05:42:12;;;;;;;20.92;9.38;;;4.20;67.50;;;;;;2338431;53;21636;-75
2020/12/01 05:44:41;;;;;;;17.25;7.75;;;4.20;67.60;;;;;;2582280;53;21144;-75
2020/12/01 05:47:12;;;;;;;16.77;8.77;;;4.20;67.80;;;;;;2324044;53;21441;-75
2020/12/01 05:49:49;;;;;;;19.48;9.13;;;4.20;67.90;;;;;;2578461;53;21000;-75
2020/12/01 05:52:19;;;;;;;20.17;8.98;;;4.20;68.00;;;;;;2554225;53;20977;-75
2020/12/01 05:54:48;;;;;;;19.05;9.30;;;4.20;68.10;;;;;;2554723;54;21026;-75
2020/12/01 05:57:27;;;;;;;21.90;10.05;;;4.20;68.20;;;;;;2318064;53;20975;-75
2020/12/01 06:00:00;;;;;;;22.60;10.52;;;4.20;68.30;;;;;;2296143;53;20947;-75
2020/12/01 06:02:47;;;;;;;20.73;9.60;;;4.30;68.40;;;;;;2553797;54;20938;-75
2020/12/01 06:05:16;;;;;;;20.98;9.88;;;4.30;68.50;;;;;;2536558;53;20986;-74
2020/12/01 06:07:44;;;;;;;19.92;9.35;;;4.30;68.50;;;;;;2543754;53;21347;-75
2020/12/01 06:13:17;;;;;;;19.35;8.55;;;4.30;68.50;;;;;;2336578;53;20991;-75
2020/12/01 06:18:53;;;;;;;21.70;9.18;;;4.30;68.20;;;;;;2317713;54;20979;-75
2020/12/01 06:21:34;;;;;;;19.08;8.98;;;4.30;68.20;;;;;;2581392;53;20927;-74
2020/12/01 06:24:10;;;;;;;21.52;9.48;;;4.40;68.10;;;;;;2344025;53;20974;-74
2020/12/01 06:29:21;;;;;;;19.65;9.63;;;4.40;68.20;;;;;;2338129;53;21439;-74
2020/12/01 06:33:02;;;;;;;18.87;8.48;;;4.30;68.10;;;;;;2317146;55;21227;-74
2020/12/01 06:35:50;;;;;;;16.20;7.72;;;4.40;68.10;;;;;;2581588;53;21455;-74
2020/12/01 06:41:58;;;;;;;25.75;10.57;;;4.40;68.20;;;;;;2553373;53;21292;-74
2020/12/01 06:44:28;;;;;;;23.05;10.68;;;4.40;68.30;;;;;;2554771;53;21843;-74
2020/12/01 06:46:56;;;;;;;16.90;8.52;;;4.40;68.40;;;;;;2333237;53;20993;-74
2020/12/01 06:49:27;;;;;;;17.50;8.07;;;4.40;68.50;;;;;;2580875;53;21046;-75
2020/12/01 06:52:27;;;;;;;16.85;7.97;;;4.40;68.70;;;;;;2337847;53;20968;-74
2020/12/01 06:54:56;;;;;;;15.38;7.53;;;4.40;68.80;;;;;;2553961;53;21013;-76
2020/12/01 06:57:28;;;;;;;14.82;7.05;;;4.40;68.90;;;;;;2582017;53;22006;-76
2020/12/01 06:59:54;;;;;;;12.68;6.37;;;4.40;69.00;;;;;;2328449;53;21016;-75
2020/12/01 07:02:33;;;;;;;13.70;6.12;;;4.50;69.20;;;;;;2339358;53;20928;-76
2020/12/01 07:05:54;;;;;;;11.80;5.43;;;4.50;69.20;;;;;;2340720;53;20908;-76
2020/12/01 07:08:27;;;;;;;11.23;5.57;;;4.50;69.30;;;;;;2316240;55;21287;-76
2020/12/01 07:11:13;;;;;;;10.98;5.60;;;4.50;69.30;;;;;;2339207;53;21032;-76
2020/12/01 07:13:53;;;;;;;14.43;6.72;;;4.60;69.40;;;;;;2587719;53;20977;-77
2020/12/01 07:16:38;;;;;;;17.35;8.13;;;4.60;69.40;;;;;;2588231;53;20945;-77
2020/12/01 07:19:54;;;;;;;80.45;28.60;;;4.60;69.30;;;;;;2348271;53;20949;-77
2020/12/01 07:22:54;;;;;;;47.47;20.08;;;4.70;69.40;;;;;;2322011;55;20977;-77
2020/12/01 07:28:53;;;;;;;28.70;17.17;;;4.70;69.50;;;;;;2583881;53;21026;-77
2020/12/01 07:31:28;;;;;;;15.95;10.30;;;4.80;69.30;;;;;;2583351;53;20964;-77
2020/12/01 07:34:04;;;;;;;12.40;6.97;;;4.80;69.40;;;;;;2556381;53;21004;-77
2020/12/01 07:36:41;;;;;;;22.35;9.10;;;4.90;69.70;;;;;;2581518;53;21018;-76
2020/12/01 07:39:26;;;;;;;65.93;18.73;;;4.80;69.60;;;;;;2580479;53;20929;-77
2020/12/01 07:41:58;;;;;;;27.35;9.90;;;4.80;69.60;;;;;;2341418;53;21608;-77
2020/12/01 07:44:26;;;;;;;17.73;7.28;;;4.90;69.80;;;;;;2344281;53;20958;-77
2020/12/01 07:47:02;;;;;;;12.48;5.97;;;4.90;69.80;;;;;;2575336;53;20917;-76
2020/12/01 07:49:30;;;;;;;11.52;5.25;;;4.90;69.80;;;;;;2340183;53;20940;-77
2020/12/01 07:52:40;;;;;;;9.68;5.20;;;4.90;69.80;;;;;;2582977;53;20929;-77
2020/12/01 07:55:25;;;;;;;9.30;4.60;;;5.00;69.90;;;;;;2583163;53;21427;-77
2020/12/01 07:57:59;;;;;;;8.35;4.50;;;5.00;69.90;;;;;;2586074;53;20952;-77
2020/12/01 08:00:26;;;;;;;8.77;4.68;;;5.00;69.90;;;;;;2312635;53;20939;-77
2020/12/01 08:03:04;;;;;;;7.80;4.18;;;5.00;70.00;;;;;;2552728;53;20930;-77
2020/12/01 08:05:31;;;;;;;6.53;3.30;;;5.10;70.10;;;;;;2522176;54;20935;-77
2020/12/01 08:07:57;;;;;;;7.75;4.40;;;5.10;70.10;;;;;;2523492;54;21202;-78
2020/12/01 08:10:24;;;;;;;8.98;4.75;;;5.10;70.10;;;;;;2552765;53;20975;-78
2020/12/01 08:12:52;;;;;;;7.43;4.30;;;5.20;70.30;;;;;;2550531;53;21015;-78
2020/12/01 08:15:22;;;;;;;7.65;4.00;;;5.20;70.30;;;;;;2548293;53;20951;-78
2020/12/01 08:17:49;;;;;;;8.00;3.95;;;5.20;71.00;;;;;;2544262;54;21269;-79
2020/12/01 08:20:18;;;;;;;8.80;4.32;;;5.20;70.30;;;;;;2574485;53;20977;-78
2020/12/01 08:23:07;;;;;;;7.87;4.00;;;5.30;70.40;;;;;;2584559;53;20979;-77
2020/12/01 08:26:29;;;;;;;7.68;4.00;;;5.30;70.40;;;;;;2585535;53;20924;-77
2020/12/01 08:29:16;;;;;;;8.52;4.50;;;5.30;70.40;;;;;;2342655;53;20929;-79
2020/12/01 08:32:45;;;;;;;11.65;5.37;;;5.40;70.40;;;;;;2584686;53;20999;-78
2020/12/01 08:36:48;;;;;;;9.60;4.97;;;5.40;70.30;;;;;;2585654;53;20948;-77
2020/12/01 08:44:20;;;;;;;8.43;4.35;;;5.40;70.20;;;;;;2584865;53;21290;-77
2020/12/01 08:46:47;;;;;;;9.65;5.18;;;5.50;70.20;;;;;;2583495;53;20949;-77
2020/12/01 08:49:23;;;;;;;8.55;4.78;;;5.50;70.40;;;;;;2582443;53;20955;-76
2020/12/01 08:51:56;;;;;;;12.90;6.60;;;5.50;70.50;;;;;;2326300;54;20933;-77
2020/12/01 08:54:31;;;;;;;10.90;6.00;;;5.50;70.60;;;;;;2582967;53;21084;-76
2020/12/01 08:57:34;;;;;;;11.00;5.72;;;5.60;70.70;;;;;;2587056;53;20928;-76
2020/12/01 09:00:14;;;;;;;11.30;6.03;;;5.60;70.50;;;;;;2586613;53;20952;-76
2020/12/01 09:02:42;;;;;;;10.55;6.20;;;5.60;70.50;;;;;;2585212;52;20909;-76
2020/12/01 09:05:20;;;;;;;8.45;4.53;;;5.60;70.50;;;;;;2341586;53;20995;-76
2020/12/01 09:07:59;;;;;;;10.02;5.32;;;5.60;70.50;;;;;;2559262;53;20964;-77
2020/12/01 09:10:30;;;;;;;10.18;5.95;;;5.60;70.60;;;;;;2586295;53;21052;-76
2020/12/01 09:13:25;;;;;;;8.98;4.95;;;5.60;70.60;;;;;;2342340;53;20956;-77
2020/12/01 09:16:32;;;;;;;10.05;5.40;;;5.60;70.60;;;;;;2588168;53;21100;-75
2020/12/01 09:19:25;;;;;;;11.25;6.30;;;5.60;70.70;;;;;;2588106;53;20967;-76
2020/12/01 09:24:28;;;;;;;44.90;13.55;;;5.70;70.70;;;;;;2572051;53;21641;-75
2020/12/01 09:27:12;;;;;;;22.50;9.63;;;5.70;70.70;;;;;;2566969;53;20971;-76
2020/12/01 09:29:43;;;;;;;13.43;6.72;;;5.70;71.30;;;;;;2587362;53;20933;-76
2020/12/01 09:32:18;;;;;;;9.75;5.70;;;5.70;70.80;;;;;;2323702;54;20972;-76
2020/12/01 09:34:45;;;;;;;12.13;6.35;;;5.70;70.70;;;;;;2344429;53;20976;-76
2020/12/01 09:37:12;;;;;;;9.93;5.65;;;5.70;70.80;;;;;;2345629;53;21330;-75
2020/12/01 09:39:38;;;;;;;14.87;8.40;;;5.70;70.90;;;;;;2340561;53;21103;-75
2020/12/01 09:42:13;;;;;;;12.60;7.22;;;5.70;70.90;;;;;;2343027;53;20952;-76
2020/12/01 09:50:37;;;;;;;8.68;4.93;;;5.70;70.90;;;;;;2587766;53;20955;-75
2020/12/01 10:07:56;;;;;;;6.37;3.55;;;5.70;70.80;;;;;;2339644;53;21560;-74
2020/12/01 10:10:55;;;;;;;8.25;4.80;;;5.70;70.90;;;;;;2325208;54;21011;-74
2020/12/01 10:35:59;;;;;;;7.35;4.65;;;5.80;70.90;;;;;;2347606;53;20984;-75
2020/12/01 10:38:25;;;;;;;8.77;5.70;;;5.80;71.10;;;;;;2341317;53;21005;-74
2020/12/01 10:40:51;;;;;;;9.77;6.35;;;5.80;71.20;;;;;;2341608;53;20945;-74
2020/12/01 10:43:18;;;;;;;8.70;5.40;;;5.80;71.20;;;;;;2587348;52;20964;-74
2020/12/01 10:45:44;;;;;;;9.77;5.95;;;5.90;71.40;;;;;;2345880;53;21016;-75
2020/12/01 10:48:17;;;;;;;8.13;5.22;;;5.90;71.40;;;;;;2341306;53;21004;-74
2020/12/01 10:50:43;;;;;;;9.25;5.30;;;5.90;71.30;;;;;;2341178;53;20976;-74
2020/12/01 10:53:09;;;;;;;12.13;6.62;;;5.90;71.30;;;;;;2340878;53;20964;-74
2020/12/01 10:55:36;;;;;;;12.20;6.50;;;5.90;71.30;;;;;;2344029;53;21385;-75
2020/12/01 10:58:02;;;;;;;10.35;6.45;;;5.90;71.30;;;;;;2342209;53;20948;-74
2020/12/01 11:00:28;;;;;;;7.87;5.07;;;6.00;71.50;;;;;;2341371;53;21611;-75
2020/12/01 11:02:57;;;;;;;8.63;5.25;;;6.00;71.50;;;;;;2338179;53;20976;-74
2020/12/01 11:05:32;;;;;;;6.25;3.72;;;6.00;71.50;;;;;;2342524;53;21839;-75
2020/12/01 11:07:59;;;;;;;6.50;4.20;;;6.00;71.50;;;;;;2341217;53;20932;-74
2020/12/01 11:10:29;;;;;;;6.25;4.10;;;6.10;71.70;;;;;;2343111;53;21017;-75
2020/12/01 11:12:56;;;;;;;6.72;4.28;;;6.10;71.60;;;;;;2327576;53;21753;-74
2020/12/01 11:15:23;;;;;;;7.32;4.35;;;6.10;71.60;;;;;;2344750;53;21454;-74
2020/12/01 11:17:51;;;;;;;8.18;4.20;;;6.30;71.70;;;;;;2335635;53;21025;-75
2020/12/01 11:20:18;;;;;;;6.18;3.87;;;6.20;71.60;;;;;;2330626;53;20938;-74
2020/12/01 11:22:49;;;;;;;9.30;4.70;;;6.20;71.70;;;;;;2331674;53;21805;-74
2020/12/01 11:25:17;;;;;;;12.40;7.03;;;6.20;71.70;;;;;;2587636;53;20960;-75
2020/12/01 11:27:43;;;;;;;8.65;5.28;;;6.30;71.90;;;;;;2586910;52;21051;-75
2020/12/01 11:30:10;;;;;;;8.73;4.78;;;6.30;71.90;;;;;;2341950;53;20984;-74
2020/12/01 11:32:42;;;;;;;7.72;4.68;;;6.40;72.00;;;;;;2344855;53;20953;-74
2020/12/01 11:35:09;;;;;;;9.35;5.20;;;6.40;71.80;;;;;;2343345;53;21016;-75
2020/12/01 11:37:36;;;;;;;8.45;4.40;;;6.40;71.80;;;;;;2344618;53;21465;-74
2020/12/01 11:40:04;;;;;;;7.37;4.70;;;6.50;71.90;;;;;;2343755;53;20956;-74
2020/12/01 11:42:31;;;;;;;7.35;4.65;;;6.50;71.80;;;;;;2340250;53;20996;-74
2020/12/01 11:44:57;;;;;;;6.43;4.18;;;6.50;71.60;;;;;;2341895;53;20981;-74
2020/12/01 11:47:25;;;;;;;7.28;3.85;;;6.50;71.60;;;;;;2341926;53;20952;-74
2020/12/01 11:50:06;;;;;;;5.43;3.28;;;6.60;71.70;;;;;;2340291;53;20960;-74
2020/12/01 11:52:33;;;;;;;6.57;3.50;;;6.60;71.40;;;;;;2322012;54;20968;-74
2020/12/01 11:55:29;;;;;;;6.18;2.70;;;6.60;71.60;;;;;;2587242;53;23812;-74
2020/12/01 11:57:55;;;;;;;6.30;3.65;;;6.60;71.50;;;;;;2345271;53;20937;-74
2020/12/01 12:00:23;;;;;;;6.53;3.60;;;6.70;71.80;;;;;;2586748;53;21452;-74
2020/12/01 12:02:50;;;;;;;6.00;3.47;;;6.70;72.00;;;;;;2326207;53;20966;-73
2020/12/01 12:05:16;;;;;;;6.62;3.45;;;6.70;72.10;;;;;;2338203;53;20988;-74
2020/12/01 12:08:28;;;;;;;5.87;3.60;;;6.80;72.20;;;;;;2342658;53;21007;-74
2020/12/01 12:10:54;;;;;;;7.12;3.90;;;6.80;71.70;;;;;;2579051;53;21133;-74
2020/12/01 12:13:23;;;;;;;6.35;3.60;;;6.90;71.80;;;;;;2341040;53;21111;-74
2020/12/01 12:15:52;;;;;;;6.70;3.92;;;6.90;71.90;;;;;;2589419;53;21031;-74
2020/12/01 12:18:31;;;;;;;7.95;4.60;;;6.90;71.70;;;;;;2588114;53;20940;-74
2020/12/01 12:21:40;;;;;;;7.95;3.80;;;6.90;71.30;;;;;;2330894;54;20947;-74
2020/12/01 12:24:06;;;;;;;7.32;3.85;;;7.00;71.20;;;;;;2352918;53;20912;-74
2020/12/01 12:26:32;;;;;;;7.28;3.83;;;7.00;71.20;;;;;;2340769;53;20940;-73
2020/12/01 12:28:59;;;;;;;6.62;4.18;;;6.90;71.00;;;;;;2343137;53;20988;-74
2020/12/01 12:31:33;;;;;;;6.97;3.37;;;6.90;70.80;;;;;;2341605;53;21510;-74
2020/12/01 12:34:00;;;;;;;6.05;3.05;;;7.00;70.90;;;;;;2585881;53;21634;-73
2020/12/01 12:36:26;;;;;;;6.62;3.42;;;7.00;71.00;;;;;;2346088;53;20965;-74
2020/12/01 12:38:55;;;;;;;5.43;3.08;;;6.90;70.80;;;;;;2332488;53;21341;-74
2020/12/01 12:41:21;;;;;;;7.43;3.60;;;6.90;70.80;;;;;;2344792;53;20976;-73
2020/12/01 12:43:49;;;;;;;6.18;3.55;;;6.90;70.80;;;;;;2327928;53;21027;-74
2020/12/01 12:46:15;;;;;;;5.47;3.00;;;7.00;70.90;;;;;;2329922;53;20987;-74
2020/12/01 12:48:41;;;;;;;5.53;2.90;;;7.00;70.90;;;;;;2587174;53;21004;-74
2020/12/01 12:51:12;;;;;;;5.25;2.85;;;7.00;71.00;;;;;;2340971;53;21595;-74
2020/12/01 12:54:00;;;;;;;5.50;3.25;;;7.00;71.00;;;;;;2345307;53;21423;-73
2020/12/01 12:56:26;;;;;;;5.18;2.80;;;7.00;70.70;;;;;;2567770;53;21024;-74
2020/12/01 12:58:53;;;;;;;5.22;2.60;;;7.00;71.00;;;;;;2328933;54;20998;-74
2020/12/01 13:01:20;;;;;;;9.82;4.32;;;7.00;71.20;;;;;;2340536;53;21005;-74
2020/12/01 13:04:01;;;;;;;13.38;5.20;;;7.00;71.30;;;;;;2343372;53;21422;-74
2020/12/01 13:06:29;;;;;;;6.15;2.90;;;7.10;71.30;;;;;;2345523;53;20984;-74
2020/12/01 13:09:26;;;;;;;4.53;2.50;;;7.10;71.60;;;;;;2343425;53;20928;-74
2020/12/01 13:11:53;;;;;;;5.97;2.72;;;7.10;71.60;;;;;;2327052;53;20953;-73
2020/12/01 13:14:19;;;;;;;5.68;3.25;;;7.10;71.90;;;;;;2338151;53;21008;-74
2020/12/01 13:16:47;;;;;;;6.25;3.25;;;7.20;71.70;;;;;;2582024;53;21032;-74
2020/12/01 13:19:13;;;;;;;5.25;2.78;;;7.20;71.70;;;;;;2333935;53;21048;-74
2020/12/01 13:21:42;;;;;;;5.00;2.70;;;7.20;71.60;;;;;;2338673;53;20957;-73
2020/12/01 13:24:09;;;;;;;4.70;2.30;;;7.30;71.70;;;;;;2337513;53;21481;-73
2020/12/01 13:26:35;;;;;;;4.90;2.75;;;7.30;71.50;;;;;;2344326;53;21022;-74
2020/12/01 13:29:02;;;;;;;3.85;2.05;;;7.30;71.40;;;;;;2341108;53;20964;-74
2020/12/01 13:31:28;;;;;;;4.45;2.50;;;7.40;71.20;;;;;;2335726;53;21902;-74
2020/12/01 13:33:55;;;;;;;4.78;2.42;;;7.40;71.10;;;;;;2580878;53;20929;-73
2020/12/01 13:36:45;;;;;;;5.20;2.78;;;7.40;70.90;;;;;;2326956;53;21997;-73
2020/12/01 13:39:12;;;;;;;4.78;2.70;;;7.40;70.70;;;;;;2342307;53;20989;-73
2020/12/01 13:41:39;;;;;;;4.37;2.37;;;7.40;70.80;;;;;;2568132;52;20928;-75
2020/12/01 13:44:05;;;;;;;5.07;2.78;;;7.40;70.90;;;;;;2347482;53;21017;-73
2020/12/01 13:46:31;;;;;;;4.78;2.58;;;7.30;70.80;;;;;;2328535;54;22083;-73
2020/12/01 13:48:58;;;;;;;4.15;2.50;;;7.40;70.80;;;;;;2573264;53;20933;-74
2020/12/01 13:51:24;;;;;;;6.30;2.78;;;7.40;70.80;;;;;;2586293;53;20933;-74
2020/12/01 13:53:53;;;;;;;6.50;3.42;;;7.40;70.70;;;;;;2580247;53;20933;-74
2020/12/01 13:56:20;;;;;;;5.05;2.87;;;7.40;70.80;;;;;;2343917;53;21044;-74
2020/12/01 13:58:50;;;;;;;10.55;5.97;;;7.40;70.80;;;;;;2341055;53;21005;-73
2020/12/01 14:01:18;;;;;;;8.50;4.32;;;7.40;70.80;;;;;;2586600;53;21079;-74
2020/12/01 14:03:44;;;;;;;6.50;3.28;;;7.40;70.80;;;;;;2336484;53;20925;-74
2020/12/01 14:06:14;;;;;;;6.65;3.75;;;7.40;70.80;;;;;;2342094;53;20948;-73
2020/12/01 14:08:40;;;;;;;6.43;3.37;;;7.40;70.80;;;;;;2588343;53;20972;-74
2020/12/01 14:11:08;;;;;;;7.15;3.95;;;7.40;70.80;;;;;;2580984;53;21414;-74
2020/12/01 14:13:34;;;;;;;7.70;4.05;;;7.40;70.60;;;;;;2343298;53;21013;-74
2020/12/01 14:16:00;;;;;;;5.72;3.30;;;7.40;70.50;;;;;;2333286;53;22011;-74
2020/12/01 14:18:27;;;;;;;5.57;3.10;;;7.40;70.30;;;;;;2339289;53;20955;-74
2020/12/01 14:20:53;;;;;;;7.28;4.40;;;7.30;70.30;;;;;;2340838;53;21003;-75
2020/12/01 14:23:20;;;;;;;6.82;4.95;;;7.30;70.20;;;;;;2582166;53;20948;-74
2020/12/01 14:25:49;;;;;;;7.45;5.20;;;7.30;70.10;;;;;;2579790;53;21508;-74
2020/12/01 14:28:15;;;;;;;5.05;3.35;;;7.30;70.10;;;;;;2343879;53;20952;-74
2020/12/01 14:30:42;;;;;;;5.37;3.08;;;7.30;70.00;;;;;;2344964;53;21674;-74